Micoud, Saint Lucia
Current Conditions -  °F | °C
As of 8:00 AM on Friday 28 Nov 2014 (Local Time) from TLPL Reporting Station
Scattered Clouds Scattered Clouds  
Wind Chill: 81°   Ceiling: Unl
Heat Index: 86°   Visibility: 6mi
Dew Point: 75°   Wind: 9mph
Humidity: 84%   Direction: 60°ENE
Pressure: 29.94"   Gusts: NA
Location:  13.82°N, 60.9°W
Report Text: TLPL 281200Z 06008KT 9999 SCT020TCU 27/24 Q1014 NOSIG
Loading
Personal Weather Stations






























Interactive Weather Map New forecast layout! Learn more

10-Day Weather Forecast

Advertisements
Track Severe Weather on mobile